createdAt,value
2022-12-04T02:33:29.508Z,-6.07
2022-12-04T02:36:12.456Z,-5.90
2022-12-04T02:38:44.278Z,-5.69
2022-12-04T02:41:20.120Z,-5.46
2022-12-04T02:43:55.173Z,-5.23
2022-12-04T02:46:35.832Z,-4.99
2022-12-04T02:49:07.097Z,-4.79
2022-12-04T02:51:39.972Z,-4.60
2022-12-04T02:54:17.568Z,-4.42
2022-12-04T02:56:47.933Z,-4.29
2022-12-04T02:59:26.866Z,-4.20
2022-12-04T03:01:57.771Z,-4.08
2022-12-04T03:04:30.883Z,-4.02
2022-12-04T03:07:03.019Z,-3.95
2022-12-04T03:09:38.121Z,-3.85
2022-12-04T03:12:18.789Z,-3.79
2022-12-04T03:14:57.331Z,-3.75
2022-12-04T03:17:31.332Z,-3.75
2022-12-04T03:20:03.874Z,-3.70
2022-12-04T03:22:31.772Z,-3.63
2022-12-04T03:24:59.841Z,-3.64
2022-12-04T03:27:57.650Z,-3.66
2022-12-04T03:30:24.994Z,-3.59
2022-12-04T03:33:15.416Z,-3.59
2022-12-04T03:35:45.233Z,-3.63
2022-12-04T03:38:30.997Z,-3.55
2022-12-04T03:41:03.955Z,-3.52
2022-12-04T03:43:51.101Z,-3.57
2022-12-04T03:46:40.171Z,-3.61
2022-12-04T03:49:23.890Z,-3.67
2022-12-04T03:52:07.196Z,-3.64
2022-12-04T03:54:40.656Z,-3.67
2022-12-04T03:57:14.408Z,-3.67
2022-12-04T04:00:11.613Z,-3.69
2022-12-04T04:02:44.916Z,-3.64
2022-12-04T04:05:14.493Z,-3.60
2022-12-04T04:07:56.717Z,-3.52
2022-12-04T04:10:26.797Z,-3.65
2022-12-04T04:13:21.464Z,-3.63
2022-12-04T04:16:12.142Z,-3.73
2022-12-04T04:19:01.185Z,-3.68
2022-12-04T04:22:00.417Z,-3.68
2022-12-04T04:24:40.542Z,-3.68
2022-12-04T04:27:07.857Z,-3.70
2022-12-04T04:29:35.611Z,-3.69
2022-12-04T04:32:13.661Z,-3.78
2022-12-04T04:34:49.763Z,-3.73
2022-12-04T04:37:55.151Z,-3.68
2022-12-04T04:40:37.514Z,-3.80
2022-12-04T04:43:18.884Z,-3.76
2022-12-04T04:45:52.960Z,-3.80
2022-12-04T04:48:28.137Z,-3.81
2022-12-04T04:50:56.021Z,-3.89
2022-12-04T04:53:28.830Z,-3.81
2022-12-04T04:55:57.025Z,-3.75
2022-12-04T04:58:24.113Z,-3.77
2022-12-04T05:01:01.824Z,-3.77
2022-12-04T05:03:29.912Z,-3.71
2022-12-04T05:05:57.061Z,-3.71
2022-12-04T05:08:24.054Z,-3.67
2022-12-04T05:10:51.566Z,-3.64
2022-12-04T05:13:20.027Z,-3.67
2022-12-04T05:16:17.538Z,-3.60
2022-12-04T05:19:06.993Z,-3.62
2022-12-04T05:21:36.172Z,-3.67
2022-12-04T05:24:06.626Z,-3.61
2022-12-04T05:26:35.188Z,-3.60
2022-12-04T05:29:03.331Z,-3.67
2022-12-04T05:31:30.842Z,-3.64
2022-12-04T05:33:59.479Z,-3.67
2022-12-04T05:36:28.581Z,-3.66
2022-12-04T05:38:56.616Z,-3.64
2022-12-04T05:41:24.819Z,-3.68
2022-12-04T05:43:53.756Z,-3.73
2022-12-04T05:46:21.656Z,-3.63
2022-12-04T05:48:50.985Z,-3.58
2022-12-04T05:51:19.261Z,-3.59
2022-12-04T05:53:47.590Z,-3.58
2022-12-04T05:56:16.147Z,-3.59
2022-12-04T05:58:45.193Z,-3.69
2022-12-04T06:01:17.985Z,-3.58
2022-12-04T06:03:48.456Z,-3.56
2022-12-04T06:06:25.635Z,-3.59
2022-12-04T06:08:56.105Z,-3.57
2022-12-04T06:11:26.831Z,-3.53
2022-12-04T06:13:55.682Z,-3.58
2022-12-04T06:16:30.884Z,-3.57
2022-12-04T06:19:01.870Z,-3.52
2022-12-04T06:21:34.306Z,-3.56
2022-12-04T06:24:07.730Z,-3.48
2022-12-04T06:26:36.585Z,-3.39
2022-12-04T06:29:04.755Z,-3.44
2022-12-04T06:31:34.160Z,-3.39
2022-12-04T06:34:03.160Z,-3.31
2022-12-04T06:36:31.643Z,-3.28
2022-12-04T06:39:00.856Z,-3.28
2022-12-04T06:41:30.627Z,-3.23
2022-12-04T06:43:59.841Z,-3.18
2022-12-04T06:46:31.585Z,-3.17
2022-12-04T06:49:02.569Z,-3.16
2022-12-04T06:51:37.501Z,-3.21
2022-12-04T06:54:05.930Z,-3.18
2022-12-04T06:56:35.683Z,-3.18
2022-12-04T06:59:05.202Z,-3.18
2022-12-04T07:01:35.177Z,-3.17
2022-12-04T07:04:05.164Z,-3.13
2022-12-04T07:06:39.093Z,-3.06
2022-12-04T07:09:10.163Z,-3.04
2022-12-04T07:11:39.335Z,-3.02
2022-12-04T07:14:08.530Z,-2.99
2022-12-04T07:16:41.399Z,-2.98
2022-12-04T07:19:11.580Z,-3.12
2022-12-04T07:21:38.938Z,-3.04
2022-12-04T07:24:06.754Z,-2.96
2022-12-04T07:26:34.143Z,-2.93
2022-12-04T07:29:01.570Z,-2.84
2022-12-04T07:31:30.229Z,-2.77
2022-12-04T07:33:58.708Z,-2.75
2022-12-04T07:36:28.021Z,-2.67
2022-12-04T07:38:56.978Z,-2.72
2022-12-04T07:41:25.595Z,-2.61
2022-12-04T07:43:54.595Z,-2.55
2022-12-04T07:46:25.890Z,-2.53
2022-12-04T07:48:56.772Z,-2.47
2022-12-04T07:51:28.344Z,-2.53
2022-12-04T07:54:03.706Z,-2.41
2022-12-04T07:56:32.669Z,-2.43
2022-12-04T07:59:01.460Z,-2.40
2022-12-04T08:01:29.197Z,-2.40
2022-12-04T08:03:59.092Z,-2.28
2022-12-04T08:06:29.435Z,-2.32
2022-12-04T08:08:57.725Z,-2.22
2022-12-04T08:11:27.019Z,-2.18
2022-12-04T08:13:58.483Z,-2.12
2022-12-04T08:16:27.849Z,-2.03
2022-12-04T08:18:56.168Z,-2.00
2022-12-04T08:21:27.850Z,-1.95
2022-12-04T08:23:57.202Z,-1.81
2022-12-04T08:26:27.645Z,-1.73
2022-12-04T08:28:57.673Z,-1.69
2022-12-04T08:31:27.156Z,-1.68
2022-12-04T08:33:57.671Z,-1.55
2022-12-04T08:36:26.476Z,-1.62
2022-12-04T08:38:56.154Z,-1.52
2022-12-04T08:41:31.548Z,-1.48
2022-12-04T08:44:01.469Z,-1.46
2022-12-04T08:46:32.828Z,-1.39
2022-12-04T08:49:01.629Z,-1.27
2022-12-04T08:51:32.740Z,-1.23
2022-12-04T08:54:06.730Z,-1.23
2022-12-04T08:56:36.513Z,-1.23
2022-12-04T08:59:04.841Z,-1.27
2022-12-04T09:01:32.638Z,-1.28
2022-12-04T09:04:02.946Z,-1.36
2022-12-04T09:06:30.852Z,-1.38
2022-12-04T09:08:58.735Z,-1.33
2022-12-04T09:11:29.472Z,-1.33
2022-12-04T09:13:57.377Z,-1.37
2022-12-04T09:16:26.648Z,-1.33
2022-12-04T09:18:56.471Z,-1.23
2022-12-04T09:21:25.425Z,-1.23
2022-12-04T09:23:53.382Z,-1.22
2022-12-04T09:26:26.878Z,-1.10
2022-12-04T09:28:56.537Z,-0.99
2022-12-04T09:31:25.430Z,-1.05
2022-12-04T09:33:53.488Z,-0.95
2022-12-04T09:36:22.483Z,-0.91
2022-12-04T09:38:52.643Z,-0.86
2022-12-04T09:41:32.495Z,-0.75
2022-12-04T09:44:29.698Z,-0.77
2022-12-04T09:47:03.858Z,-0.74
2022-12-04T09:49:44.128Z,-0.71
2022-12-04T09:52:36.296Z,-0.65
2022-12-04T09:55:08.548Z,-0.56
2022-12-04T09:57:45.086Z,-0.57
2022-12-04T10:00:16.007Z,-0.56
2022-12-04T10:02:53.536Z,-0.53
2022-12-04T10:05:30.778Z,-0.48
2022-12-04T10:08:16.830Z,-0.51
2022-12-04T10:11:05.325Z,-0.45
2022-12-04T10:13:45.297Z,-0.48
2022-12-04T10:16:49.615Z,-0.43
2022-12-04T10:19:41.586Z,-0.51
2022-12-04T10:22:24.520Z,-0.59
2022-12-04T10:24:57.710Z,-0.55
2022-12-04T10:27:26.481Z,-0.64
2022-12-04T10:30:02.149Z,-0.58
2022-12-04T10:32:33.430Z,-0.50
2022-12-04T10:35:27.005Z,-0.49
2022-12-04T10:38:01.223Z,-0.36
2022-12-04T10:40:46.945Z,-0.28
2022-12-04T10:43:43.304Z,-0.28
2022-12-04T10:46:24.319Z,-0.45
2022-12-04T10:48:59.660Z,-0.49
2022-12-04T10:51:30.357Z,-0.57
2022-12-04T10:53:59.961Z,-0.58
2022-12-04T10:56:28.566Z,-0.63
2022-12-04T10:59:01.308Z,-0.65
2022-12-04T11:01:35.631Z,-0.75
2022-12-04T11:04:21.226Z,-0.76
2022-12-04T11:07:02.070Z,-0.85
2022-12-04T11:09:30.958Z,-0.99
2022-12-04T11:12:20.616Z,-1.06
2022-12-04T11:14:48.215Z,-1.12
2022-12-04T11:17:21.421Z,-1.15
2022-12-04T11:20:00.665Z,-1.12
2022-12-04T11:22:29.157Z,-1.18
2022-12-04T11:25:00.621Z,-1.15
2022-12-04T11:27:35.029Z,-1.19
2022-12-04T11:30:09.268Z,-1.16
2022-12-04T11:32:38.621Z,-1.07
2022-12-04T11:35:18.182Z,-1.04
2022-12-04T11:38:21.362Z,-1.11
2022-12-04T11:40:55.954Z,-1.06
2022-12-04T11:43:30.297Z,-1.14
2022-12-04T11:45:59.883Z,-1.11
2022-12-04T11:48:31.979Z,-1.10
2022-12-04T11:51:28.747Z,-1.30
2022-12-04T11:54:02.615Z,-1.24
2022-12-04T11:56:35.639Z,-1.23
2022-12-04T11:59:07.515Z,-1.25
2022-12-04T12:02:12.783Z,-1.29
2022-12-04T12:05:37.865Z,-1.41
2022-12-04T12:08:26.235Z,-1.47
2022-12-04T12:10:56.273Z,-1.58
2022-12-04T12:13:56.355Z,-1.58
2022-12-04T12:16:41.837Z,-1.63
2022-12-04T12:19:36.532Z,-1.76
2022-12-04T12:22:28.469Z,-1.78
2022-12-04T12:25:05.502Z,-1.89
2022-12-04T12:27:44.746Z,-1.91
2022-12-04T12:30:22.154Z,-1.99
2022-12-04T12:33:09.836Z,-2.05
2022-12-04T12:36:01.426Z,-2.23
2022-12-04T12:38:47.294Z,-2.46
2022-12-04T12:41:20.719Z,-2.77
2022-12-04T12:44:16.645Z,-3.02
2022-12-04T12:47:08.413Z,-3.27
2022-12-04T12:49:55.255Z,-3.54
2022-12-04T12:52:34.713Z,-3.65
2022-12-04T12:55:18.387Z,-3.82
2022-12-04T12:57:53.315Z,-3.94
2022-12-04T13:00:24.145Z,-4.09
2022-12-04T13:02:58.656Z,-4.18
2022-12-04T13:05:32.058Z,-4.32
2022-12-04T13:08:25.069Z,-4.40
2022-12-04T13:11:07.340Z,-4.53
2022-12-04T13:13:41.256Z,-4.69
2022-12-04T13:16:23.907Z,-4.79
2022-12-04T13:19:18.155Z,-4.96
2022-12-04T13:21:51.744Z,-5.09
2022-12-04T13:24:48.941Z,-5.23
2022-12-04T13:27:35.239Z,-5.37
2022-12-04T13:30:23.763Z,-5.51
2022-12-04T13:33:08.492Z,-5.65
2022-12-04T13:35:42.224Z,-5.76
2022-12-04T13:38:42.499Z,-5.90
2022-12-04T13:41:24.162Z,-6.01
2022-12-04T13:43:59.677Z,-6.12
2022-12-04T13:46:36.093Z,-6.17
2022-12-04T13:49:20.205Z,-6.20
2022-12-04T13:51:49.742Z,-6.23
2022-12-04T13:54:17.327Z,-6.27
2022-12-04T13:56:54.225Z,-6.29
2022-12-04T13:59:24.441Z,-6.32
2022-12-04T14:02:04.962Z,-6.33
2022-12-04T14:04:46.523Z,-6.30
2022-12-04T14:07:37.485Z,-6.27
2022-12-04T14:10:09.699Z,-6.28
2022-12-04T14:12:42.674Z,-6.29
2022-12-04T14:15:20.843Z,-6.33
2022-12-04T18:41:46.647Z,-11.39
2022-12-04T18:44:13.290Z,-11.21
2022-12-04T18:46:40.308Z,-11.00
2022-12-04T18:49:09.460Z,-10.72
2022-12-04T18:51:43.714Z,-10.40
2022-12-04T18:54:17.475Z,-10.09
2022-12-04T18:56:44.991Z,-9.84
2022-12-04T18:59:17.720Z,-9.60
2022-12-04T19:01:47.549Z,-9.42
2022-12-04T19:04:17.686Z,-9.25
2022-12-04T19:06:48.179Z,-9.14
2022-12-04T19:09:18.313Z,-9.03
2022-12-04T19:11:46.684Z,-9.01
2022-12-04T19:14:22.776Z,-8.91
2022-12-04T19:16:51.611Z,-8.87
2022-12-04T19:19:18.817Z,-8.83
2022-12-04T19:21:46.275Z,-8.85
2022-12-04T19:24:13.864Z,-8.82
2022-12-04T19:26:41.447Z,-8.76
2022-12-04T19:29:09.121Z,-8.71
2022-12-04T19:31:37.791Z,-8.73
2022-12-04T19:34:06.429Z,-8.71
2022-12-04T19:36:34.657Z,-8.71
2022-12-04T19:39:03.358Z,-8.71
2022-12-04T19:41:33.768Z,-8.71
2022-12-04T19:44:03.437Z,-8.68
2022-12-04T19:46:38.367Z,-8.68
2022-12-04T19:49:08.519Z,-8.70
2022-12-04T19:51:40.505Z,-8.64
2022-12-04T19:54:13.243Z,-8.62
2022-12-04T19:56:40.678Z,-8.62
2022-12-04T19:59:08.651Z,-8.59
2022-12-04T20:01:36.234Z,-8.56
2022-12-04T20:04:06.830Z,-8.54
2022-12-04T20:06:45.472Z,-8.50
2022-12-04T20:09:15.875Z,-8.45
2022-12-04T20:11:42.898Z,-8.42
2022-12-04T20:14:10.341Z,-8.38
2022-12-04T20:16:38.904Z,-8.37
2022-12-04T20:19:13.068Z,-8.30
2022-12-04T20:21:40.119Z,-8.29
2022-12-04T20:24:07.710Z,-8.25
2022-12-04T20:26:38.605Z,-8.15
2022-12-04T20:29:07.576Z,-8.10
2022-12-04T20:31:37.640Z,-8.10
2022-12-04T20:34:08.896Z,-8.07
2022-12-04T20:36:38.546Z,-7.99
2022-12-04T20:39:07.222Z,-7.96
2022-12-04T20:41:36.104Z,-7.91
2022-12-04T20:44:07.157Z,-7.90
2022-12-04T20:46:39.089Z,-7.89
2022-12-04T20:49:14.566Z,-7.94
2022-12-04T20:51:44.908Z,-7.90
2022-12-04T20:54:18.629Z,-7.91
2022-12-04T20:56:48.847Z,-7.91
2022-12-04T20:59:18.187Z,-7.93
2022-12-04T21:01:45.638Z,-7.91
2022-12-04T21:04:13.183Z,-7.96
2022-12-04T21:06:41.131Z,-7.99
2022-12-04T21:09:14.042Z,-8.00
2022-12-04T21:11:44.376Z,-8.00
2022-12-04T21:14:42.865Z,-7.98
2022-12-04T21:17:14.441Z,-8.00
2022-12-04T21:19:41.347Z,-8.01
2022-12-04T21:22:08.560Z,-8.03
2022-12-04T21:24:38.856Z,-8.05
2022-12-04T21:27:09.271Z,-8.06
2022-12-04T21:29:37.830Z,-8.01
2022-12-04T21:32:06.280Z,-8.05
2022-12-04T21:34:33.694Z,-8.03
2022-12-04T21:37:00.638Z,-8.02
2022-12-04T21:39:27.882Z,-8.08
2022-12-04T21:42:13.313Z,-8.03
2022-12-04T21:44:40.683Z,-8.01
2022-12-04T21:47:07.671Z,-7.97
2022-12-04T21:49:34.739Z,-8.00
2022-12-04T21:52:01.727Z,-8.01
2022-12-04T21:54:29.363Z,-7.98
2022-12-04T21:56:58.644Z,-7.92
2022-12-04T21:59:26.081Z,-7.91
2022-12-04T22:01:53.806Z,-7.90
2022-12-04T22:04:21.547Z,-7.91
2022-12-04T22:06:48.903Z,-7.91
2022-12-04T22:09:16.379Z,-7.90
2022-12-04T22:11:43.997Z,-7.92
2022-12-04T22:14:12.187Z,-7.92
2022-12-04T22:16:42.741Z,-7.92
